createdAt,value
2019-06-20T00:00:43.794Z,22.80
2019-06-20T00:03:12.323Z,22.40
2019-06-20T00:05:40.886Z,22.40
2019-06-20T00:08:09.680Z,22.20
2019-06-20T00:10:38.381Z,22.10
2019-06-20T00:13:07.068Z,22.10
2019-06-20T00:15:36.224Z,22.10
2019-06-20T00:18:04.799Z,22.10
2019-06-20T00:20:33.405Z,22.10
2019-06-20T00:23:03.044Z,22.10
2019-06-20T00:25:31.522Z,22.20
2019-06-20T00:28:00.055Z,22.40
2019-06-20T00:30:28.557Z,22.60
2019-06-20T00:32:57.021Z,22.30
2019-06-20T00:35:25.483Z,22.10
2019-06-20T00:37:53.992Z,21.80
2019-06-20T00:40:22.596Z,22.00
2019-06-20T00:42:51.132Z,21.90
2019-06-20T00:45:20.286Z,21.90
2019-06-20T00:47:48.814Z,21.80
2019-06-20T00:50:17.426Z,21.60
2019-06-20T00:52:46.054Z,21.70
2019-06-20T00:55:14.660Z,21.80
2019-06-20T00:57:43.233Z,21.90
2019-06-20T01:00:12.447Z,22.10
2019-06-20T01:02:40.976Z,22.00
2019-06-20T01:05:09.797Z,22.00
2019-06-20T01:07:38.434Z,22.00
2019-06-20T01:10:08.676Z,22.00
2019-06-20T01:12:37.181Z,21.90
2019-06-20T01:15:08.045Z,21.90
2019-06-20T01:17:36.574Z,21.90
2019-06-20T01:20:12.004Z,21.90
2019-06-20T01:22:40.602Z,22.00
2019-06-20T01:25:09.545Z,22.00
2019-06-20T01:27:38.363Z,22.10
2019-06-20T01:30:08.865Z,22.10
2019-06-20T01:32:37.419Z,22.20
2019-06-20T01:35:09.740Z,22.10
2019-06-20T01:37:38.371Z,22.10
2019-06-20T01:40:07.567Z,22.10
2019-06-20T01:42:36.234Z,22.20
2019-06-20T01:45:08.061Z,22.00
2019-06-20T01:47:36.660Z,21.70
2019-06-20T01:50:08.264Z,21.70
2019-06-20T01:52:36.897Z,21.60
2019-06-20T01:55:05.879Z,21.20
2019-06-20T01:57:34.420Z,20.90
2019-06-20T02:00:03.211Z,20.80
2019-06-20T02:02:31.925Z,21.00
2019-06-20T02:05:00.451Z,21.10
2019-06-20T02:07:28.974Z,21.10
2019-06-20T02:09:57.575Z,21.20
2019-06-20T02:12:26.068Z,21.30
2019-06-20T02:14:54.972Z,21.20
2019-06-20T02:17:23.525Z,21.10
2019-06-20T02:19:52.132Z,21.10
2019-06-20T02:22:20.806Z,21.20
2019-06-20T02:24:49.297Z,21.50
2019-06-20T02:27:17.994Z,21.70
2019-06-20T02:29:46.555Z,21.60
2019-06-20T02:32:15.064Z,21.30
2019-06-20T02:34:43.533Z,21.30
2019-06-20T02:37:12.116Z,21.30
2019-06-20T02:39:40.909Z,21.30
2019-06-20T02:42:09.946Z,21.40
2019-06-20T02:44:38.468Z,21.50
2019-06-20T02:47:06.957Z,21.20
2019-06-20T02:49:35.521Z,21.30
2019-06-20T02:52:04.245Z,21.60
2019-06-20T02:54:32.796Z,21.20
2019-06-20T02:57:01.288Z,21.10
2019-06-20T02:59:29.845Z,21.10
2019-06-20T03:01:58.429Z,21.00
2019-06-20T03:04:26.910Z,21.00
2019-06-20T03:06:55.507Z,20.80
2019-06-20T03:09:24.001Z,20.80
2019-06-20T03:11:52.570Z,20.70
2019-06-20T03:14:21.164Z,20.60
2019-06-20T03:16:49.699Z,20.40
2019-06-20T03:19:18.179Z,20.40
2019-06-20T03:21:46.740Z,20.40
2019-06-20T03:24:15.536Z,20.40
2019-06-20T03:26:44.079Z,20.50
2019-06-20T03:29:12.598Z,20.50
2019-06-20T03:31:41.133Z,20.60
2019-06-20T03:34:09.737Z,20.60
2019-06-20T03:36:38.310Z,20.60
2019-06-20T03:39:07.620Z,20.40
2019-06-20T03:41:36.167Z,20.50
2019-06-20T03:44:05.052Z,20.50
2019-06-20T03:46:33.661Z,20.40
2019-06-20T03:49:03.160Z,20.30
2019-06-20T03:51:31.631Z,20.30
2019-06-20T03:54:00.093Z,20.30
2019-06-20T03:56:28.595Z,20.20
2019-06-20T03:58:57.203Z,20.10
2019-06-20T04:01:25.702Z,20.10
2019-06-20T04:03:54.186Z,20.00
2019-06-20T04:06:22.821Z,19.90
2019-06-20T04:08:51.380Z,19.80
2019-06-20T04:11:19.919Z,19.60
2019-06-20T04:13:48.388Z,19.40
2019-06-20T04:16:16.948Z,19.10
2019-06-20T04:18:45.523Z,18.90
2019-06-20T04:21:14.164Z,18.80
2019-06-20T04:23:42.672Z,18.70
2019-06-20T04:26:11.232Z,18.70
2019-06-20T04:28:40.315Z,18.70
2019-06-20T04:31:09.300Z,18.70
2019-06-20T04:33:37.791Z,19.00
2019-06-20T04:36:06.327Z,19.00
2019-06-20T04:38:34.792Z,19.00
2019-06-20T04:41:03.285Z,19.20
2019-06-20T04:43:31.849Z,19.50
2019-06-20T04:46:05.098Z,19.10
2019-06-20T04:48:33.589Z,19.10
2019-06-20T04:51:02.379Z,19.00
2019-06-20T04:53:30.945Z,19.10
2019-06-20T04:55:59.420Z,18.60
2019-06-20T04:58:27.951Z,18.50
2019-06-20T05:00:56.435Z,18.90
2019-06-20T05:03:24.899Z,19.10
2019-06-20T05:05:53.453Z,18.80
2019-06-20T05:08:21.911Z,18.80
2019-06-20T05:10:50.455Z,18.80
2019-06-20T05:13:19.081Z,18.70
2019-06-20T05:15:52.767Z,18.70
2019-06-20T05:18:17.846Z,18.70
2019-06-20T05:20:46.383Z,19.00
2019-06-20T05:23:14.915Z,19.20
2019-06-20T05:25:43.407Z,19.00
2019-06-20T05:28:11.878Z,18.90
2019-06-20T05:30:40.419Z,19.10
2019-06-20T05:33:08.922Z,19.30
2019-06-20T05:35:37.476Z,19.30
2019-06-20T05:38:06.007Z,19.50
2019-06-20T05:40:37.093Z,19.80
2019-06-20T05:43:04.820Z,20.00
2019-06-20T05:45:33.277Z,20.10
2019-06-20T05:48:01.778Z,20.20
2019-06-20T05:50:30.982Z,20.20
2019-06-20T05:52:59.588Z,20.60
2019-06-20T05:55:28.242Z,20.60
2019-06-20T05:57:57.801Z,20.40
2019-06-20T06:00:27.846Z,20.40
2019-06-20T06:02:56.427Z,20.50
2019-06-20T06:05:24.900Z,20.50
2019-06-20T06:07:53.368Z,20.40
2019-06-20T06:10:23.179Z,20.20
2019-06-20T06:12:51.865Z,20.50
2019-06-20T06:15:20.575Z,20.70
2019-06-20T06:17:49.141Z,20.80
2019-06-20T06:20:19.204Z,21.00
2019-06-20T06:22:47.812Z,21.00
2019-06-20T06:25:16.407Z,21.20
2019-06-20T06:27:45.041Z,21.50
2019-06-20T06:30:14.040Z,21.40
2019-06-20T06:32:42.674Z,21.40
2019-06-20T06:35:11.644Z,21.70
2019-06-20T06:37:40.644Z,22.10
2019-06-20T06:40:10.667Z,22.20
2019-06-20T06:42:39.280Z,22.20
2019-06-20T06:45:08.956Z,22.00
2019-06-20T06:47:37.690Z,21.90
2019-06-20T06:50:07.145Z,22.10
2019-06-20T06:52:35.780Z,22.00
2019-06-20T06:55:05.092Z,22.00
2019-06-20T06:57:33.632Z,22.30
2019-06-20T07:00:02.380Z,22.10
2019-06-20T07:02:31.055Z,22.20
2019-06-20T07:04:59.669Z,22.20
2019-06-20T07:07:28.212Z,22.20
2019-06-20T07:09:56.679Z,22.30
2019-06-20T07:12:25.254Z,22.20
2019-06-20T07:14:53.877Z,22.40
2019-06-20T07:17:22.416Z,22.60
2019-06-20T07:19:51.071Z,22.80
2019-06-20T07:22:19.617Z,22.80
2019-06-20T07:24:48.162Z,23.00
2019-06-20T07:27:16.801Z,23.10
2019-06-20T07:29:45.319Z,23.00
2019-06-20T07:32:13.776Z,23.20
2019-06-20T07:34:42.299Z,23.20
2019-06-20T07:37:10.825Z,23.30
2019-06-20T07:39:39.292Z,23.70
2019-06-20T07:42:07.781Z,23.70
2019-06-20T07:44:36.325Z,23.80
2019-06-20T07:47:17.004Z,23.80
2019-06-20T07:49:35.080Z,23.60
2019-06-20T07:52:03.632Z,23.60
2019-06-20T07:54:32.273Z,23.50
2019-06-20T07:57:00.748Z,23.60
2019-06-20T07:59:29.236Z,23.50
2019-06-20T08:01:57.771Z,24.10
2019-06-20T08:04:26.233Z,24.40
2019-06-20T08:06:54.793Z,24.70
2019-06-20T08:09:23.331Z,25.10
2019-06-20T08:11:51.867Z,24.90
2019-06-20T08:14:20.444Z,24.80
2019-06-20T08:16:48.975Z,25.20
2019-06-20T08:19:17.525Z,25.00
2019-06-20T08:21:46.092Z,24.80
2019-06-20T08:24:14.547Z,24.80
2019-06-20T08:26:43.005Z,24.80
2019-06-20T08:29:20.670Z,25.10
2019-06-20T08:31:41.919Z,25.10
2019-06-20T08:34:10.733Z,25.20
2019-06-20T08:36:39.202Z,25.70
2019-06-20T08:39:09.742Z,26.10
2019-06-20T08:41:38.304Z,26.60
2019-06-20T08:44:07.035Z,26.90
2019-06-20T08:46:35.767Z,27.00
2019-06-20T08:49:05.820Z,27.30
2019-06-20T08:51:34.563Z,27.30
2019-06-20T08:54:03.412Z,27.00
2019-06-20T08:56:32.432Z,26.90
2019-06-20T08:59:01.143Z,27.00
2019-06-20T09:01:29.904Z,27.40
2019-06-20T09:03:58.686Z,27.60
2019-06-20T09:06:27.240Z,27.80
2019-06-20T09:08:57.042Z,27.70
2019-06-20T09:11:26.429Z,28.10
2019-06-20T09:13:55.487Z,28.20
2019-06-20T09:16:24.915Z,28.20
2019-06-20T09:18:54.936Z,28.10
2019-06-20T09:21:24.008Z,28.40
2019-06-20T09:23:54.014Z,28.40
2019-06-20T09:26:22.668Z,28.50
2019-06-20T09:28:52.675Z,28.60
2019-06-20T09:31:21.676Z,28.40
2019-06-20T09:33:52.148Z,28.30
2019-06-20T09:36:20.608Z,28.30
2019-06-20T09:38:49.196Z,28.20
2019-06-20T09:41:17.908Z,27.90
2019-06-20T09:43:46.429Z,27.80
2019-06-20T09:46:15.040Z,27.90
2019-06-20T09:48:43.601Z,28.20
2019-06-20T09:51:12.159Z,28.40
2019-06-20T09:53:40.697Z,28.20
2019-06-20T09:56:09.269Z,28.10
2019-06-20T09:58:37.741Z,28.20
2019-06-20T10:01:06.255Z,28.20
2019-06-20T10:03:34.845Z,28.10
2019-06-20T10:06:13.371Z,28.50
2019-06-20T10:08:33.771Z,28.50
2019-06-20T10:11:02.403Z,28.50
2019-06-20T10:13:32.815Z,28.20
2019-06-20T10:16:01.332Z,28.00
2019-06-20T10:18:30.060Z,28.10
2019-06-20T10:20:58.649Z,28.20
2019-06-20T10:23:27.266Z,28.20
2019-06-20T10:25:55.823Z,28.20
2019-06-20T10:28:24.289Z,28.10
2019-06-20T10:30:53.449Z,28.10
2019-06-20T10:33:22.196Z,28.10
2019-06-20T10:35:50.740Z,27.90
2019-06-20T10:38:19.322Z,28.00
2019-06-20T10:40:48.022Z,27.80
2019-06-20T10:43:16.918Z,27.40
2019-06-20T10:45:45.843Z,27.30
2019-06-20T10:48:14.579Z,27.20
2019-06-20T10:50:44.021Z,27.10
2019-06-20T10:53:14.236Z,26.90
2019-06-20T10:55:43.363Z,26.80
2019-06-20T10:58:12.374Z,26.80
2019-06-20T11:00:41.730Z,27.00
2019-06-20T11:03:11.327Z,27.20
2019-06-20T11:05:40.864Z,27.40
2019-06-20T11:08:10.337Z,27.60
2019-06-20T11:10:40.352Z,27.90
2019-06-20T11:13:09.568Z,28.20
2019-06-20T11:15:39.273Z,28.30
2019-06-20T11:18:08.489Z,28.40
2019-06-20T11:20:37.815Z,28.60
2019-06-20T11:23:07.429Z,29.10
2019-06-20T11:25:36.971Z,29.10
2019-06-20T11:28:06.264Z,29.40
2019-06-20T11:30:48.035Z,29.40
2019-06-20T11:33:05.716Z,29.50
2019-06-20T11:35:35.953Z,29.70
2019-06-20T11:38:05.121Z,29.80
2019-06-20T11:40:36.217Z,30.10
2019-06-20T11:43:05.006Z,30.30
2019-06-20T11:45:35.428Z,30.70
2019-06-20T11:48:03.916Z,30.50
2019-06-20T11:50:34.428Z,30.50
2019-06-20T11:53:02.664Z,30.20
2019-06-20T11:55:31.215Z,29.60
2019-06-20T11:57:59.814Z,29.30
2019-06-20T12:00:29.204Z,29.00
2019-06-20T12:02:57.725Z,28.80
2019-06-20T12:05:26.455Z,28.50
2019-06-20T12:07:55.043Z,28.50
2019-06-20T12:10:25.125Z,28.40
2019-06-20T12:12:53.686Z,28.00
2019-06-20T12:15:22.469Z,27.70
2019-06-20T12:17:51.100Z,27.30
2019-06-20T12:20:22.342Z,27.40
2019-06-20T12:22:51.016Z,27.30
2019-06-20T12:25:20.143Z,27.30
2019-06-20T12:27:49.753Z,27.10
2019-06-20T12:30:19.533Z,27.30
2019-06-20T12:32:49.412Z,27.50
2019-06-20T12:35:18.235Z,27.30
2019-06-20T12:37:47.781Z,27.40
2019-06-20T12:40:16.743Z,27.70
2019-06-20T12:42:46.638Z,27.70
2019-06-20T12:45:16.250Z,27.60
2019-06-20T12:47:45.900Z,27.30
2019-06-20T12:50:15.873Z,27.20
2019-06-20T12:52:45.767Z,27.10
2019-06-20T12:55:14.903Z,27.30
2019-06-20T12:57:44.183Z,26.80
2019-06-20T13:00:14.605Z,26.20
2019-06-20T13:02:43.707Z,26.00
2019-06-20T13:05:13.424Z,26.10
2019-06-20T13:07:42.352Z,26.30
2019-06-20T13:10:11.623Z,26.60
2019-06-20T13:12:42.262Z,26.90
2019-06-20T13:15:10.740Z,26.90
2019-06-20T13:17:39.991Z,26.90
2019-06-20T13:20:11.053Z,26.90
2019-06-20T13:22:41.330Z,26.90
2019-06-20T13:25:10.235Z,26.60
2019-06-20T13:27:39.647Z,26.60
2019-06-20T13:30:09.752Z,26.50
2019-06-20T13:32:39.739Z,26.50
2019-06-20T13:35:08.892Z,26.50
2019-06-20T13:37:38.254Z,26.50
2019-06-20T13:40:11.959Z,26.40
2019-06-20T13:42:42.096Z,26.30
2019-06-20T13:45:26.777Z,26.20
2019-06-20T13:47:55.371Z,26.30
2019-06-20T13:50:25.305Z,26.20
2019-06-20T13:52:54.375Z,26.20
2019-06-20T13:55:23.060Z,26.50
2019-06-20T13:57:51.970Z,26.80
2019-06-20T14:00:22.804Z,27.20
2019-06-20T14:02:51.832Z,27.60
2019-06-20T14:05:20.915Z,28.30
2019-06-20T14:07:52.911Z,28.80
2019-06-20T14:10:20.297Z,29.40
2019-06-20T14:12:49.032Z,30.00
2019-06-20T14:15:18.324Z,30.30
2019-06-20T14:17:47.460Z,30.20
2019-06-20T14:20:17.277Z,30.10
2019-06-20T14:22:45.920Z,29.90
2019-06-20T14:25:14.660Z,30.30
2019-06-20T14:27:43.948Z,30.30
2019-06-20T14:30:13.495Z,30.90
2019-06-20T14:32:43.293Z,31.80
2019-06-20T14:35:12.617Z,32.80
2019-06-20T14:37:43.397Z,34.30
2019-06-20T14:40:11.715Z,35.30
2019-06-20T14:42:40.279Z,36.10
2019-06-20T14:45:09.455Z,36.90
2019-06-20T14:47:38.061Z,37.80
2019-06-20T14:50:10.407Z,37.70
2019-06-20T14:52:38.940Z,37.30
2019-06-20T14:55:08.242Z,37.80
2019-06-20T14:57:36.866Z,38.10
2019-06-20T15:00:13.391Z,37.60
2019-06-20T15:02:42.031Z,37.20
2019-06-20T15:05:15.376Z,37.10
2019-06-20T15:07:45.711Z,37.90
2019-06-20T15:10:15.015Z,39.00
2019-06-20T15:12:45.748Z,39.60
2019-06-20T15:15:13.937Z,38.90
2019-06-20T15:17:42.580Z,40.00
2019-06-20T15:20:11.510Z,40.80
2019-06-20T15:22:40.042Z,41.10
2019-06-20T15:25:09.539Z,41.40
2019-06-20T15:27:38.001Z,41.20
2019-06-20T15:30:07.580Z,39.90
2019-06-20T15:32:36.212Z,38.80
2019-06-20T15:35:08.034Z,37.40
2019-06-20T15:37:36.572Z,36.20
2019-06-20T15:40:06.478Z,35.00
2019-06-20T15:42:35.010Z,33.80
2019-06-20T15:45:05.351Z,32.70
2019-06-20T15:47:33.918Z,31.40
2019-06-20T15:50:02.647Z,30.50
2019-06-20T15:52:31.414Z,30.00
2019-06-20T15:55:00.220Z,29.70
2019-06-20T15:57:28.743Z,31.20
2019-06-20T15:59:57.205Z,32.80
2019-06-20T16:02:25.774Z,33.50
2019-06-20T16:04:54.320Z,33.80
2019-06-20T16:07:22.851Z,33.30
2019-06-20T16:09:51.414Z,33.00
2019-06-20T16:12:20.029Z,34.10
2019-06-20T16:14:48.837Z,34.90
2019-06-20T16:17:17.824Z,35.20
2019-06-20T16:19:46.288Z,34.80
2019-06-20T16:22:15.104Z,33.80
2019-06-20T16:24:43.685Z,33.20
2019-06-20T16:27:12.246Z,32.60
2019-06-20T16:29:40.787Z,32.00
2019-06-20T16:32:09.345Z,31.90
2019-06-20T16:34:37.876Z,32.10
2019-06-20T16:37:10.010Z,31.80
2019-06-20T16:39:36.635Z,31.30
2019-06-20T16:42:05.260Z,31.10
2019-06-20T16:44:33.821Z,31.40
2019-06-20T16:47:02.375Z,32.00
2019-06-20T16:49:30.913Z,32.90
2019-06-20T16:51:59.532Z,34.10
2019-06-20T16:54:28.067Z,35.80
2019-06-20T16:56:56.543Z,36.20
2019-06-20T16:59:25.146Z,36.80
2019-06-20T17:01:53.723Z,37.70
2019-06-20T17:04:22.185Z,38.50
2019-06-20T17:06:50.765Z,39.10
2019-06-20T17:09:19.227Z,38.50
2019-06-20T17:11:47.716Z,39.10
2019-06-20T17:14:16.261Z,39.50
2019-06-20T17:16:44.853Z,39.20
2019-06-20T17:19:13.446Z,39.20
2019-06-20T17:21:42.256Z,39.30
2019-06-20T17:24:10.847Z,39.40
2019-06-20T17:26:39.436Z,38.60
2019-06-20T17:29:07.966Z,38.40
2019-06-20T17:31:37.174Z,37.70
2019-06-20T17:34:05.881Z,36.50
2019-06-20T17:36:34.596Z,34.60
2019-06-20T17:39:03.183Z,33.70
2019-06-20T17:41:31.832Z,32.20
2019-06-20T17:44:00.367Z,31.10
2019-06-20T17:46:28.913Z,30.00
2019-06-20T17:48:57.404Z,29.20
2019-06-20T17:51:25.940Z,28.50
2019-06-20T17:53:54.409Z,28.20
2019-06-20T17:56:23.070Z,27.50
2019-06-20T17:58:51.677Z,27.10
2019-06-20T18:01:20.130Z,26.70
2019-06-20T18:03:48.708Z,26.70
2019-06-20T18:06:17.165Z,26.80
2019-06-20T18:08:45.663Z,26.80
2019-06-20T18:11:14.206Z,26.60
2019-06-20T18:13:42.783Z,26.90
2019-06-20T18:16:24.572Z,27.30
2019-06-20T18:18:41.715Z,28.40
2019-06-20T18:21:10.181Z,29.40
2019-06-20T18:23:38.736Z,30.10
2019-06-20T18:26:07.311Z,30.60
2019-06-20T18:28:36.221Z,30.30
2019-06-20T18:31:04.819Z,29.80
2019-06-20T18:33:33.383Z,29.00
2019-06-20T18:36:01.941Z,28.40
2019-06-20T18:38:30.513Z,27.90
2019-06-20T18:40:59.060Z,27.90
2019-06-20T18:43:27.622Z,27.80
2019-06-20T18:45:56.084Z,27.60
2019-06-20T18:48:24.625Z,27.80
2019-06-20T18:50:53.181Z,28.10
2019-06-20T18:53:21.649Z,28.30
2019-06-20T18:55:50.105Z,28.80
2019-06-20T18:58:19.251Z,29.20
2019-06-20T19:00:47.868Z,29.50
2019-06-20T19:03:16.526Z,29.80
2019-06-20T19:05:45.103Z,29.80
2019-06-20T19:08:13.699Z,29.60
2019-06-20T19:10:42.395Z,29.10
2019-06-20T19:13:12.978Z,28.70
2019-06-20T19:15:41.162Z,28.10
2019-06-20T19:18:09.684Z,27.70
2019-06-20T19:20:38.260Z,27.10
2019-06-20T19:23:06.851Z,27.00
2019-06-20T19:25:35.333Z,26.40
2019-06-20T19:28:04.141Z,26.10
2019-06-20T19:30:38.706Z,25.80
2019-06-20T19:33:07.241Z,25.20
2019-06-20T19:35:35.913Z,25.00
2019-06-20T19:38:04.619Z,24.80
2019-06-20T19:40:36.462Z,24.80
2019-06-20T19:43:05.138Z,24.50
2019-06-20T19:45:33.671Z,24.60
2019-06-20T19:48:02.311Z,24.50
2019-06-20T19:50:30.848Z,24.50
2019-06-20T19:52:59.379Z,24.50
2019-06-20T19:55:28.106Z,24.40
2019-06-20T19:57:56.689Z,24.40
2019-06-20T20:00:25.571Z,24.30
2019-06-20T20:02:54.472Z,24.20
2019-06-20T20:05:23.096Z,24.10
2019-06-20T20:07:51.859Z,24.10
2019-06-20T20:10:26.446Z,23.90
2019-06-20T20:12:54.996Z,23.70
2019-06-20T20:15:23.646Z,23.60
2019-06-20T20:17:52.210Z,23.60
2019-06-20T20:20:20.883Z,23.00
2019-06-20T20:22:49.352Z,22.90
2019-06-20T20:25:18.262Z,22.70
2019-06-20T20:27:46.736Z,22.50
2019-06-20T20:30:15.509Z,22.40
2019-06-20T20:32:44.092Z,22.40
2019-06-20T20:35:12.747Z,22.30
2019-06-20T20:37:41.349Z,22.40
2019-06-20T20:40:10.424Z,22.40
2019-06-20T20:42:38.963Z,22.50
2019-06-20T20:45:08.225Z,22.60
2019-06-20T20:47:36.689Z,22.70
2019-06-20T20:50:08.314Z,22.70
2019-06-20T20:52:36.928Z,22.60
2019-06-20T20:55:10.111Z,22.50
2019-06-20T20:57:39.050Z,22.60
2019-06-20T21:00:16.589Z,22.70
2019-06-20T21:02:45.151Z,22.80
2019-06-20T21:05:14.012Z,22.70
2019-06-20T21:07:42.578Z,22.70
2019-06-20T21:10:12.950Z,22.70
2019-06-20T21:12:41.557Z,22.80
2019-06-20T21:15:10.348Z,22.90
2019-06-20T21:17:38.974Z,22.80
2019-06-20T21:20:08.145Z,22.50
2019-06-20T21:22:36.631Z,22.70
2019-06-20T21:25:06.898Z,22.50
2019-06-20T21:27:35.424Z,22.60
2019-06-20T21:30:05.263Z,22.70
2019-06-20T21:32:33.873Z,22.70
2019-06-20T21:35:02.464Z,22.90
2019-06-20T21:37:30.954Z,22.80
2019-06-20T21:39:59.671Z,22.80
2019-06-20T21:42:28.238Z,23.00
2019-06-20T21:44:56.779Z,22.90
2019-06-20T21:47:25.317Z,22.90
2019-06-20T21:49:53.879Z,22.80
2019-06-20T21:52:22.776Z,22.50
2019-06-20T21:57:19.717Z,22.70
2019-06-20T21:59:48.236Z,22.70
2019-06-20T22:02:16.926Z,22.60
2019-06-20T22:04:54.029Z,22.70
2019-06-20T22:07:15.887Z,22.80
2019-06-20T22:09:44.542Z,22.70
2019-06-20T22:12:13.455Z,22.60
2019-06-20T22:14:42.256Z,22.60
2019-06-20T22:17:10.887Z,22.50
2019-06-20T22:19:39.559Z,22.80
2019-06-20T22:22:08.208Z,22.90
2019-06-20T22:24:36.753Z,22.90
2019-06-20T22:27:05.382Z,22.80
2019-06-20T22:29:34.082Z,22.30
2019-06-20T22:32:02.655Z,22.10
2019-06-20T22:34:31.183Z,22.30
2019-06-20T22:36:59.686Z,22.20
2019-06-20T22:39:28.242Z,22.50
2019-06-20T22:41:56.700Z,22.50
2019-06-20T22:44:25.170Z,22.10
2019-06-20T22:46:53.714Z,22.20
2019-06-20T22:49:22.232Z,22.10
2019-06-20T22:51:50.729Z,22.20
2019-06-20T22:54:19.333Z,22.10
2019-06-20T22:56:47.818Z,22.20
2019-06-20T22:59:16.386Z,22.30
2019-06-20T23:01:44.901Z,22.40
2019-06-20T23:04:13.439Z,22.40
2019-06-20T23:06:55.326Z,22.30
2019-06-20T23:09:12.334Z,22.20
2019-06-20T23:11:41.204Z,22.20
2019-06-20T23:14:09.766Z,22.10
2019-06-20T23:16:38.372Z,22.00
2019-06-20T23:19:07.269Z,21.80
2019-06-20T23:21:35.784Z,21.60
2019-06-20T23:24:04.424Z,21.60
2019-06-20T23:26:33.022Z,21.90
2019-06-20T23:29:05.879Z,21.80
2019-06-20T23:31:34.425Z,22.00
2019-06-20T23:34:03.212Z,22.00
2019-06-20T23:36:31.782Z,22.10
2019-06-20T23:39:00.328Z,22.10
2019-06-20T23:41:28.863Z,21.90
2019-06-20T23:43:57.434Z,21.80
2019-06-20T23:46:25.894Z,22.00
2019-06-20T23:48:54.447Z,21.90
2019-06-20T23:51:25.578Z,21.70
2019-06-20T23:53:54.250Z,21.70
2019-06-20T23:56:22.824Z,21.40
2019-06-20T23:58:51.376Z,21.10
